Alburnett, Iowa
Current Conditions -  °F | °C
As of 11:52 AM on Friday 28 Nov 2014 (Local Time) from KCID Reporting Station
Clear Clear  
Wind Chill: 17°   Ceiling: Unl
Heat Index: 27°   Visibility: 9mi
Dew Point: 21°   Wind: 12mph
Humidity: 78%   Direction: 140°SE
Pressure: 29.93"   Gusts: NA
Location:  42.15°N, 91.62°W
Report Text: KCID 281752Z 14010KT 9SM CLR M03/M06 A2993 RMK AO2 SLP151 T10281061 11028 21094 58032
Loading
Personal Weather Stations






























Interactive Weather Map New forecast layout! Learn more

10-Day Weather Forecast

Advertisements
Track Severe Weather on mobile